sensor_id;sensor_type;location;lat;lon;timestamp;temperature;humidity
5792;DHT22;2922;53.482;10.006;2023-05-21T00:02:08;13.10;99.90
5792;DHT22;2922;53.482;10.006;2023-05-21T00:04:36;13.10;99.90
5792;DHT22;2922;53.482;10.006;2023-05-21T00:07:05;13.00;99.90
5792;DHT22;2922;53.482;10.006;2023-05-21T00:09:31;13.00;99.90
5792;DHT22;2922;53.482;10.006;2023-05-21T00:11:56;13.00;99.90
5792;DHT22;2922;53.482;10.006;2023-05-21T00:14:22;13.00;99.90
5792;DHT22;2922;53.482;10.006;2023-05-21T00:16:47;13.00;99.90
5792;DHT22;2922;53.482;10.006;2023-05-21T00:19:13;13.00;99.90
5792;DHT22;2922;53.482;10.006;2023-05-21T00:21:38;13.00;99.90
5792;DHT22;2922;53.482;10.006;2023-05-21T00:24:05;12.90;99.90
5792;DHT22;2922;53.482;10.006;2023-05-21T00:26:31;13.00;99.90
5792;DHT22;2922;53.482;10.006;2023-05-21T00:28:56;13.00;99.90
5792;DHT22;2922;53.482;10.006;2023-05-21T00:31:22;12.90;99.90
5792;DHT22;2922;53.482;10.006;2023-05-21T00:33:48;12.90;99.90
5792;DHT22;2922;53.482;10.006;2023-05-21T00:36:13;12.90;99.90
5792;DHT22;2922;53.482;10.006;2023-05-21T00:38:40;12.90;99.90
5792;DHT22;2922;53.482;10.006;2023-05-21T00:41:11;12.90;99.90
5792;DHT22;2922;53.482;10.006;2023-05-21T00:43:37;12.80;99.90
5792;DHT22;2922;53.482;10.006;2023-05-21T00:46:06;12.80;99.90
5792;DHT22;2922;53.482;10.006;2023-05-21T00:48:33;12.80;99.90
5792;DHT22;2922;53.482;10.006;2023-05-21T00:50:59;12.80;99.90
5792;DHT22;2922;53.482;10.006;2023-05-21T00:53:25;12.70;99.90
5792;DHT22;2922;53.482;10.006;2023-05-21T00:55:51;12.70;99.90
5792;DHT22;2922;53.482;10.006;2023-05-21T00:58:17;12.70;99.90
5792;DHT22;2922;53.482;10.006;2023-05-21T01:00:43;12.70;99.90
5792;DHT22;2922;53.482;10.006;2023-05-21T01:03:11;12.60;99.90
5792;DHT22;2922;53.482;10.006;2023-05-21T01:05:36;12.60;99.90
5792;DHT22;2922;53.482;10.006;2023-05-21T01:08:02;12.60;99.90
5792;DHT22;2922;53.482;10.006;2023-05-21T01:10:28;12.60;99.90
5792;DHT22;2922;53.482;10.006;2023-05-21T01:12:56;12.60;99.90
5792;DHT22;2922;53.482;10.006;2023-05-21T01:15:22;12.50;99.90
5792;DHT22;2922;53.482;10.006;2023-05-21T01:17:49;12.50;99.90
5792;DHT22;2922;53.482;10.006;2023-05-21T01:20:16;12.50;99.90
5792;DHT22;2922;53.482;10.006;2023-05-21T01:22:56;12.40;99.90
5792;DHT22;2922;53.482;10.006;2023-05-21T01:25:22;12.40;99.90
5792;DHT22;2922;53.482;10.006;2023-05-21T01:27:49;12.40;99.90
5792;DHT22;2922;53.482;10.006;2023-05-21T01:30:16;12.40;99.90
5792;DHT22;2922;53.482;10.006;2023-05-21T01:35:21;12.30;99.90
5792;DHT22;2922;53.482;10.006;2023-05-21T01:40:59;12.30;99.90
5792;DHT22;2922;53.482;10.006;2023-05-21T01:43:32;12.30;99.90
5792;DHT22;2922;53.482;10.006;2023-05-21T01:45:58;12.20;99.90
5792;DHT22;2922;53.482;10.006;2023-05-21T01:48:27;12.20;99.90
5792;DHT22;2922;53.482;10.006;2023-05-21T01:50:54;12.20;99.90
5792;DHT22;2922;53.482;10.006;2023-05-21T01:53:22;12.20;99.90
5792;DHT22;2922;53.482;10.006;2023-05-21T01:55:47;12.20;99.90
5792;DHT22;2922;53.482;10.006;2023-05-21T01:58:13;12.10;99.90
5792;DHT22;2922;53.482;10.006;2023-05-21T02:00:40;12.10;99.90
5792;DHT22;2922;53.482;10.006;2023-05-21T02:03:07;12.10;99.90
5792;DHT22;2922;53.482;10.006;2023-05-21T02:05:33;12.10;99.90
5792;DHT22;2922;53.482;10.006;2023-05-21T02:07:59;12.10;99.90
5792;DHT22;2922;53.482;10.006;2023-05-21T02:10:25;12.10;99.90
5792;DHT22;2922;53.482;10.006;2023-05-21T02:12:50;12.10;99.90
5792;DHT22;2922;53.482;10.006;2023-05-21T02:15:16;12.10;99.90
5792;DHT22;2922;53.482;10.006;2023-05-21T02:17:45;12.10;99.90
5792;DHT22;2922;53.482;10.006;2023-05-21T02:20:11;12.10;99.90
5792;DHT22;2922;53.482;10.006;2023-05-21T02:22:41;12.10;99.90
5792;DHT22;2922;53.482;10.006;2023-05-21T02:25:08;12.00;99.90
5792;DHT22;2922;53.482;10.006;2023-05-21T02:27:38;12.00;99.90
5792;DHT22;2922;53.482;10.006;2023-05-21T02:30:05;12.00;99.90
5792;DHT22;2922;53.482;10.006;2023-05-21T02:32:32;12.00;99.90
5792;DHT22;2922;53.482;10.006;2023-05-21T02:34:58;12.00;99.90
5792;DHT22;2922;53.482;10.006;2023-05-21T02:37:27;11.90;99.90
5792;DHT22;2922;53.482;10.006;2023-05-21T02:39:55;11.90;99.90
5792;DHT22;2922;53.482;10.006;2023-05-21T02:42:22;11.90;99.90
5792;DHT22;2922;53.482;10.006;2023-05-21T02:44:48;11.90;99.90
5792;DHT22;2922;53.482;10.006;2023-05-21T02:47:15;11.90;99.90
5792;DHT22;2922;53.482;10.006;2023-05-21T02:49:41;11.90;99.90
5792;DHT22;2922;53.482;10.006;2023-05-21T02:52:06;11.80;99.90
5792;DHT22;2922;53.482;10.006;2023-05-21T02:54:32;11.90;99.90
5792;DHT22;2922;53.482;10.006;2023-05-21T02:56:57;11.80;99.90
5792;DHT22;2922;53.482;10.006;2023-05-21T02:59:23;11.80;99.90
5792;DHT22;2922;53.482;10.006;2023-05-21T03:01:48;11.80;99.90
5792;DHT22;2922;53.482;10.006;2023-05-21T03:04:14;11.80;99.90
5792;DHT22;2922;53.482;10.006;2023-05-21T03:06:41;11.80;99.90
5792;DHT22;2922;53.482;10.006;2023-05-21T03:09:07;11.80;99.90
5792;DHT22;2922;53.482;10.006;2023-05-21T03:11:32;11.80;99.90
5792;DHT22;2922;53.482;10.006;2023-05-21T03:13:58;11.80;99.90
5792;DHT22;2922;53.482;10.006;2023-05-21T03:16:23;11.70;99.90
5792;DHT22;2922;53.482;10.006;2023-05-21T03:18:49;11.70;99.90
5792;DHT22;2922;53.482;10.006;2023-05-21T03:21:15;11.70;99.90
5792;DHT22;2922;53.482;10.006;2023-05-21T03:23:40;11.70;99.90
5792;DHT22;2922;53.482;10.006;2023-05-21T03:26:07;11.70;99.90
5792;DHT22;2922;53.482;10.006;2023-05-21T03:28:34;11.70;99.90
5792;DHT22;2922;53.482;10.006;2023-05-21T03:30:59;11.70;99.90
5792;DHT22;2922;53.482;10.006;2023-05-21T03:33:25;11.70;99.90
5792;DHT22;2922;53.482;10.006;2023-05-21T03:35:51;11.70;99.90
5792;DHT22;2922;53.482;10.006;2023-05-21T03:38:16;11.70;99.90
5792;DHT22;2922;53.482;10.006;2023-05-21T03:40:42;11.70;99.90
5792;DHT22;2922;53.482;10.006;2023-05-21T03:43:07;11.70;99.90
5792;DHT22;2922;53.482;10.006;2023-05-21T03:45:33;11.70;99.90
5792;DHT22;2922;53.482;10.006;2023-05-21T03:47:59;11.70;99.90
5792;DHT22;2922;53.482;10.006;2023-05-21T03:50:26;11.70;99.90
5792;DHT22;2922;53.482;10.006;2023-05-21T03:52:51;11.80;99.90
5792;DHT22;2922;53.482;10.006;2023-05-21T03:55:17;11.80;99.90
5792;DHT22;2922;53.482;10.006;2023-05-21T03:57:42;11.80;99.90
5792;DHT22;2922;53.482;10.006;2023-05-21T04:00:08;11.80;99.90
5792;DHT22;2922;53.482;10.006;2023-05-21T04:02:34;11.90;99.90
5792;DHT22;2922;53.482;10.006;2023-05-21T04:05:00;11.90;99.90
5792;DHT22;2922;53.482;10.006;2023-05-21T04:07:25;11.90;99.90
5792;DHT22;2922;53.482;10.006;2023-05-21T04:09:51;12.00;99.90
5792;DHT22;2922;53.482;10.006;2023-05-21T04:12:17;12.00;99.90
5792;DHT22;2922;53.482;10.006;2023-05-21T04:14:44;12.00;99.90
5792;DHT22;2922;53.482;10.006;2023-05-21T04:17:11;12.10;99.90
5792;DHT22;2922;53.482;10.006;2023-05-21T04:19:37;12.10;99.90
5792;DHT22;2922;53.482;10.006;2023-05-21T04:22:03;12.10;99.90
5792;DHT22;2922;53.482;10.006;2023-05-21T04:24:29;12.20;99.90
5792;DHT22;2922;53.482;10.006;2023-05-21T04:26:56;12.20;99.90
5792;DHT22;2922;53.482;10.006;2023-05-21T04:29:26;12.30;99.90
5792;DHT22;2922;53.482;10.006;2023-05-21T04:31:51;12.30;99.90
5792;DHT22;2922;53.482;10.006;2023-05-21T04:34:17;12.40;99.90
5792;DHT22;2922;53.482;10.006;2023-05-21T04:36:43;12.40;99.90
5792;DHT22;2922;53.482;10.006;2023-05-21T04:39:10;12.50;99.90
5792;DHT22;2922;53.482;10.006;2023-05-21T04:41:37;12.50;99.90
5792;DHT22;2922;53.482;10.006;2023-05-21T04:44:04;12.60;99.90
5792;DHT22;2922;53.482;10.006;2023-05-21T04:46:30;12.60;99.90
5792;DHT22;2922;53.482;10.006;2023-05-21T04:48:56;12.70;99.90
5792;DHT22;2922;53.482;10.006;2023-05-21T04:51:22;12.80;99.90
5792;DHT22;2922;53.482;10.006;2023-05-21T04:53:51;12.80;99.90
5792;DHT22;2922;53.482;10.006;2023-05-21T04:56:18;12.90;99.90
5792;DHT22;2922;53.482;10.006;2023-05-21T04:58:47;13.00;99.90
5792;DHT22;2922;53.482;10.006;2023-05-21T05:01:16;13.00;99.90
5792;DHT22;2922;53.482;10.006;2023-05-21T05:03:44;13.10;99.90
5792;DHT22;2922;53.482;10.006;2023-05-21T05:06:10;13.10;99.90
5792;DHT22;2922;53.482;10.006;2023-05-21T05:08:35;13.20;99.90
5792;DHT22;2922;53.482;10.006;2023-05-21T05:11:01;13.20;99.90
5792;DHT22;2922;53.482;10.006;2023-05-21T05:13:27;13.30;99.90
5792;DHT22;2922;53.482;10.006;2023-05-21T05:15:52;13.30;99.90
5792;DHT22;2922;53.482;10.006;2023-05-21T05:18:18;13.40;99.90
5792;DHT22;2922;53.482;10.006;2023-05-21T05:20:44;13.40;99.90
5792;DHT22;2922;53.482;10.006;2023-05-21T05:23:11;13.50;99.90
5792;DHT22;2922;53.482;10.006;2023-05-21T05:25:36;13.50;99.90
5792;DHT22;2922;53.482;10.006;2023-05-21T05:28:02;13.50;99.90
5792;DHT22;2922;53.482;10.006;2023-05-21T05:30:27;13.50;99.90
5792;DHT22;2922;53.482;10.006;2023-05-21T05:32:53;13.70;99.90
5792;DHT22;2922;53.482;10.006;2023-05-21T05:35:19;13.70;99.90
5792;DHT22;2922;53.482;10.006;2023-05-21T05:37:44;13.80;99.90
5792;DHT22;2922;53.482;10.006;2023-05-21T05:40:10;13.90;99.90
5792;DHT22;2922;53.482;10.006;2023-05-21T05:42:35;14.00;99.90
5792;DHT22;2922;53.482;10.006;2023-05-21T05:45:01;14.10;99.90
5792;DHT22;2922;53.482;10.006;2023-05-21T05:47:27;14.20;99.90
5792;DHT22;2922;53.482;10.006;2023-05-21T05:49:52;14.20;99.90
5792;DHT22;2922;53.482;10.006;2023-05-21T05:52:18;14.20;99.90
5792;DHT22;2922;53.482;10.006;2023-05-21T05:54:43;14.30;99.90
5792;DHT22;2922;53.482;10.006;2023-05-21T05:57:09;14.40;99.90
5792;DHT22;2922;53.482;10.006;2023-05-21T05:59:35;14.50;99.90
5792;DHT22;2922;53.482;10.006;2023-05-21T06:02:00;14.60;99.90
5792;DHT22;2922;53.482;10.006;2023-05-21T06:04:26;14.70;99.90
5792;DHT22;2922;53.482;10.006;2023-05-21T06:06:57;14.80;99.90
5792;DHT22;2922;53.482;10.006;2023-05-21T06:09:23;14.90;99.90
5792;DHT22;2922;53.482;10.006;2023-05-21T06:11:49;15.10;99.90
5792;DHT22;2922;53.482;10.006;2023-05-21T06:14:15;15.20;99.90
5792;DHT22;2922;53.482;10.006;2023-05-21T06:16:40;15.20;99.90
5792;DHT22;2922;53.482;10.006;2023-05-21T06:19:06;15.20;99.90
5792;DHT22;2922;53.482;10.006;2023-05-21T06:21:31;15.30;99.90
5792;DHT22;2922;53.482;10.006;2023-05-21T06:23:57;15.40;99.90
5792;DHT22;2922;53.482;10.006;2023-05-21T06:26:23;15.50;99.90
5792;DHT22;2922;53.482;10.006;2023-05-21T06:28:48;15.50;99.90
5792;DHT22;2922;53.482;10.006;2023-05-21T06:31:14;15.50;99.90
5792;DHT22;2922;53.482;10.006;2023-05-21T06:33:40;15.70;99.90
5792;DHT22;2922;53.482;10.006;2023-05-21T06:36:06;15.70;99.90
5792;DHT22;2922;53.482;10.006;2023-05-21T06:38:32;15.80;99.90
5792;DHT22;2922;53.482;10.006;2023-05-21T06:40:57;15.90;99.90
5792;DHT22;2922;53.482;10.006;2023-05-21T06:43:23;16.00;99.90
5792;DHT22;2922;53.482;10.006;2023-05-21T06:45:49;16.10;99.90
5792;DHT22;2922;53.482;10.006;2023-05-21T06:48:15;16.10;99.90
5792;DHT22;2922;53.482;10.006;2023-05-21T06:50:42;16.20;99.90
5792;DHT22;2922;53.482;10.006;2023-05-21T06:53:08;16.20;99.90
5792;DHT22;2922;53.482;10.006;2023-05-21T06:55:33;16.20;99.90
5792;DHT22;2922;53.482;10.006;2023-05-21T06:57:59;16.30;99.90
5792;DHT22;2922;53.482;10.006;2023-05-21T07:00:24;16.50;99.90
5792;DHT22;2922;53.482;10.006;2023-05-21T07:02:52;16.60;99.90
5792;DHT22;2922;53.482;10.006;2023-05-21T07:05:37;16.70;99.90
5792;DHT22;2922;53.482;10.006;2023-05-21T07:08:02;16.80;99.90
5792;DHT22;2922;53.482;10.006;2023-05-21T07:10:28;16.90;99.90
5792;DHT22;2922;53.482;10.006;2023-05-21T07:12:54;17.00;99.90
5792;DHT22;2922;53.482;10.006;2023-05-21T07:15:19;17.00;99.90
5792;DHT22;2922;53.482;10.006;2023-05-21T07:17:45;17.10;99.90
5792;DHT22;2922;53.482;10.006;2023-05-21T07:20:11;17.20;99.90
5792;DHT22;2922;53.482;10.006;2023-05-21T07:22:38;17.40;99.90
5792;DHT22;2922;53.482;10.006;2023-05-21T07:25:04;17.50;99.90
5792;DHT22;2922;53.482;10.006;2023-05-21T07:27:30;17.60;99.90
5792;DHT22;2922;53.482;10.006;2023-05-21T07:29:56;17.70;99.90
5792;DHT22;2922;53.482;10.006;2023-05-21T07:32:21;17.90;99.90
5792;DHT22;2922;53.482;10.006;2023-05-21T07:34:47;18.10;99.90
5792;DHT22;2922;53.482;10.006;2023-05-21T07:37:13;18.20;99.90
5792;DHT22;2922;53.482;10.006;2023-05-21T07:39:38;18.50;99.90
5792;DHT22;2922;53.482;10.006;2023-05-21T07:42:04;18.70;99.90
5792;DHT22;2922;53.482;10.006;2023-05-21T07:44:30;19.00;99.90
5792;DHT22;2922;53.482;10.006;2023-05-21T07:46:56;19.10;99.90
5792;DHT22;2922;53.482;10.006;2023-05-21T07:49:22;19.30;99.90
5792;DHT22;2922;53.482;10.006;2023-05-21T07:51:48;19.40;99.90
5792;DHT22;2922;53.482;10.006;2023-05-21T07:54:13;19.50;99.90
5792;DHT22;2922;53.482;10.006;2023-05-21T07:56:39;19.40;99.90
5792;DHT22;2922;53.482;10.006;2023-05-21T07:59:05;19.50;99.90
5792;DHT22;2922;53.482;10.006;2023-05-21T08:01:31;19.60;99.90
5792;DHT22;2922;53.482;10.006;2023-05-21T08:03:58;19.70;99.90
5792;DHT22;2922;53.482;10.006;2023-05-21T08:06:26;19.80;99.90
5792;DHT22;2922;53.482;10.006;2023-05-21T08:08:51;19.80;99.90
5792;DHT22;2922;53.482;10.006;2023-05-21T08:11:18;19.80;99.90
5792;DHT22;2922;53.482;10.006;2023-05-21T08:13:44;19.90;99.90
5792;DHT22;2922;53.482;10.006;2023-05-21T08:16:10;20.00;99.90
5792;DHT22;2922;53.482;10.006;2023-05-21T08:18:35;20.00;99.90
5792;DHT22;2922;53.482;10.006;2023-05-21T08:21:01;20.00;99.90
5792;DHT22;2922;53.482;10.006;2023-05-21T08:23:26;20.00;99.90
5792;DHT22;2922;53.482;10.006;2023-05-21T08:25:52;20.00;99.90
5792;DHT22;2922;53.482;10.006;2023-05-21T08:28:18;20.00;99.90
5792;DHT22;2922;53.482;10.006;2023-05-21T08:30:43;20.00;99.90
5792;DHT22;2922;53.482;10.006;2023-05-21T08:33:09;20.10;99.90
5792;DHT22;2922;53.482;10.006;2023-05-21T08:35:35;20.10;99.90
5792;DHT22;2922;53.482;10.006;2023-05-21T08:38:00;20.20;99.90
5792;DHT22;2922;53.482;10.006;2023-05-21T08:40:26;20.10;99.90
5792;DHT22;2922;53.482;10.006;2023-05-21T08:42:51;20.10;99.90
5792;DHT22;2922;53.482;10.006;2023-05-21T08:45:21;20.10;99.90
5792;DHT22;2922;53.482;10.006;2023-05-21T08:47:55;20.20;99.90
5792;DHT22;2922;53.482;10.006;2023-05-21T08:50:23;20.40;99.90
5792;DHT22;2922;53.482;10.006;2023-05-21T08:52:49;20.50;99.90
5792;DHT22;2922;53.482;10.006;2023-05-21T08:55:16;20.60;99.90
5792;DHT22;2922;53.482;10.006;2023-05-21T08:57:43;20.80;99.90
5792;DHT22;2922;53.482;10.006;2023-05-21T09:00:09;20.90;99.90
5792;DHT22;2922;53.482;10.006;2023-05-21T09:02:37;21.00;99.90
5792;DHT22;2922;53.482;10.006;2023-05-21T09:05:05;21.10;99.90
5792;DHT22;2922;53.482;10.006;2023-05-21T09:07:46;21.00;99.90
5792;DHT22;2922;53.482;10.006;2023-05-21T09:10:12;21.10;99.90
5792;DHT22;2922;53.482;10.006;2023-05-21T09:12:38;21.30;99.90
5792;DHT22;2922;53.482;10.006;2023-05-21T09:15:04;21.40;99.90
5792;DHT22;2922;53.482;10.006;2023-05-21T09:17:30;21.50;99.90
5792;DHT22;2922;53.482;10.006;2023-05-21T09:20:13;21.70;99.90
5792;DHT22;2922;53.482;10.006;2023-05-21T09:22:49;21.90;99.90
5792;DHT22;2922;53.482;10.006;2023-05-21T09:25:16;22.00;99.90
5792;DHT22;2922;53.482;10.006;2023-05-21T09:27:43;22.00;99.90
5792;DHT22;2922;53.482;10.006;2023-05-21T09:30:13;22.00;99.90
5792;DHT22;2922;53.482;10.006;2023-05-21T09:32:40;22.10;99.90
5792;DHT22;2922;53.482;10.006;2023-05-21T09:35:10;22.20;99.90
5792;DHT22;2922;53.482;10.006;2023-05-21T09:37:43;22.50;99.90
5792;DHT22;2922;53.482;10.006;2023-05-21T09:42:40;22.90;99.90
5792;DHT22;2922;53.482;10.006;2023-05-21T09:45:08;23.00;99.90
5792;DHT22;2922;53.482;10.006;2023-05-21T09:47:34;23.00;99.90
5792;DHT22;2922;53.482;10.006;2023-05-21T09:50:05;23.00;99.90
5792;DHT22;2922;53.482;10.006;2023-05-21T09:52:31;23.20;99.90
5792;DHT22;2922;53.482;10.006;2023-05-21T09:54:56;23.30;99.90
5792;DHT22;2922;53.482;10.006;2023-05-21T09:57:23;23.60;99.90
5792;DHT22;2922;53.482;10.006;2023-05-21T09:59:49;23.80;99.90
5792;DHT22;2922;53.482;10.006;2023-05-21T10:02:24;24.10;99.90
5792;DHT22;2922;53.482;10.006;2023-05-21T10:04:51;24.30;99.90
5792;DHT22;2922;53.482;10.006;2023-05-21T10:07:20;24.50;99.90
5792;DHT22;2922;53.482;10.006;2023-05-21T10:09:54;24.50;99.90
5792;DHT22;2922;53.482;10.006;2023-05-21T10:12:22;24.50;99.90
5792;DHT22;2922;53.482;10.006;2023-05-21T10:14:59;24.70;99.90
5792;DHT22;2922;53.482;10.006;2023-05-21T10:17:27;24.90;99.90
5792;DHT22;2922;53.482;10.006;2023-05-21T10:19:55;25.20;99.90
5792;DHT22;2922;53.482;10.006;2023-05-21T10:22:23;25.40;99.90
5792;DHT22;2922;53.482;10.006;2023-05-21T10:24:49;25.30;99.90
5792;DHT22;2922;53.482;10.006;2023-05-21T10:27:16;25.10;99.90
5792;DHT22;2922;53.482;10.006;2023-05-21T10:29:43;24.90;99.90
5792;DHT22;2922;53.482;10.006;2023-05-21T10:32:12;25.30;99.90
5792;DHT22;2922;53.482;10.006;2023-05-21T10:34:39;25.60;99.90
5792;DHT22;2922;53.482;10.006;2023-05-21T10:37:07;25.70;99.90
5792;DHT22;2922;53.482;10.006;2023-05-21T10:39:34;25.70;99.90
5792;DHT22;2922;53.482;10.006;2023-05-21T11:00:51;27.10;99.90
5792;DHT22;2922;53.482;10.006;2023-05-21T11:03:18;27.30;99.90
5792;DHT22;2922;53.482;10.006;2023-05-21T11:05:54;27.40;99.90
5792;DHT22;2922;53.482;10.006;2023-05-21T11:08:25;27.60;99.90
5792;DHT22;2922;53.482;10.006;2023-05-21T11:10:52;27.70;99.90
5792;DHT22;2922;53.482;10.006;2023-05-21T11:13:19;27.70;99.90
5792;DHT22;2922;53.482;10.006;2023-05-21T11:21:05;27.30;99.90
5792;DHT22;2922;53.482;10.006;2023-05-21T11:23:54;27.40;99.90
5792;DHT22;2922;53.482;10.006;2023-05-21T11:26:22;27.70;99.90
5792;DHT22;2922;53.482;10.006;2023-05-21T11:31:28;27.50;99.90
5792;DHT22;2922;53.482;10.006;2023-05-21T11:36:43;28.00;99.90
5792;DHT22;2922;53.482;10.006;2023-05-21T11:39:14;27.90;99.90
5792;DHT22;2922;53.482;10.006;2023-05-21T11:41:58;28.00;99.90
5792;DHT22;2922;53.482;10.006;2023-05-21T11:44:37;28.00;99.90
5792;DHT22;2922;53.482;10.006;2023-05-21T11:47:17;27.70;99.90
5792;DHT22;2922;53.482;10.006;2023-05-21T11:49:43;27.90;99.90
5792;DHT22;2922;53.482;10.006;2023-05-21T11:52:09;27.80;99.90
5792;DHT22;2922;53.482;10.006;2023-05-21T11:54:41;27.50;99.90
5792;DHT22;2922;53.482;10.006;2023-05-21T11:57:11;27.40;99.90
5792;DHT22;2922;53.482;10.006;2023-05-21T11:59:39;27.40;99.90
5792;DHT22;2922;53.482;10.006;2023-05-21T12:02:05;27.50;99.90
5792;DHT22;2922;53.482;10.006;2023-05-21T12:04:31;27.60;99.90
5792;DHT22;2922;53.482;10.006;2023-05-21T12:06:57;27.60;99.90
5792;DHT22;2922;53.482;10.006;2023-05-21T12:09:23;27.70;99.90
5792;DHT22;2922;53.482;10.006;2023-05-21T12:11:49;27.70;99.90
5792;DHT22;2922;53.482;10.006;2023-05-21T12:14:16;27.60;99.90
5792;DHT22;2922;53.482;10.006;2023-05-21T12:16:42;27.70;99.90
5792;DHT22;2922;53.482;10.006;2023-05-21T12:19:08;27.70;99.90
5792;DHT22;2922;53.482;10.006;2023-05-21T12:21:34;27.80;99.90
5792;DHT22;2922;53.482;10.006;2023-05-21T12:24:00;28.00;99.90
5792;DHT22;2922;53.482;10.006;2023-05-21T12:26:26;28.20;99.90
5792;DHT22;2922;53.482;10.006;2023-05-21T12:28:55;28.30;99.90
5792;DHT22;2922;53.482;10.006;2023-05-21T12:31:22;28.20;99.90
5792;DHT22;2922;53.482;10.006;2023-05-21T12:33:48;28.00;99.90
5792;DHT22;2922;53.482;10.006;2023-05-21T12:36:32;28.10;99.90
5792;DHT22;2922;53.482;10.006;2023-05-21T12:38:58;28.20;99.90
5792;DHT22;2922;53.482;10.006;2023-05-21T12:41:25;28.30;99.90
5792;DHT22;2922;53.482;10.006;2023-05-21T12:43:51;28.30;99.90
5792;DHT22;2922;53.482;10.006;2023-05-21T12:46:16;28.20;99.90
5792;DHT22;2922;53.482;10.006;2023-05-21T12:48:51;28.30;99.90
5792;DHT22;2922;53.482;10.006;2023-05-21T12:51:18;28.30;99.90
5792;DHT22;2922;53.482;10.006;2023-05-21T12:53:44;28.40;99.90
5792;DHT22;2922;53.482;10.006;2023-05-21T12:56:11;28.40;99.90
5792;DHT22;2922;53.482;10.006;2023-05-21T12:58:36;28.40;99.90
5792;DHT22;2922;53.482;10.006;2023-05-21T13:01:08;28.40;99.90
5792;DHT22;2922;53.482;10.006;2023-05-21T13:03:35;28.40;98.80
5792;DHT22;2922;53.482;10.006;2023-05-21T13:06:01;28.60;99.80
5792;DHT22;2922;53.482;10.006;2023-05-21T13:08:27;28.50;97.70
5792;DHT22;2922;53.482;10.006;2023-05-21T13:10:53;28.70;99.90
5792;DHT22;2922;53.482;10.006;2023-05-21T13:13:19;28.80;99.90
5792;DHT22;2922;53.482;10.006;2023-05-21T13:15:45;28.80;96.70
5792;DHT22;2922;53.482;10.006;2023-05-21T13:18:11;28.90;95.10
5792;DHT22;2922;53.482;10.006;2023-05-21T13:20:37;29.00;95.60
5792;DHT22;2922;53.482;10.006;2023-05-21T13:23:02;29.10;93.40
5792;DHT22;2922;53.482;10.006;2023-05-21T13:25:29;29.10;91.80
5792;DHT22;2922;53.482;10.006;2023-05-21T13:28:01;29.10;91.30
5792;DHT22;2922;53.482;10.006;2023-05-21T13:30:27;29.10;92.70
5792;DHT22;2922;53.482;10.006;2023-05-21T13:32:52;29.20;95.80
5792;DHT22;2922;53.482;10.006;2023-05-21T13:35:18;29.10;99.00
5792;DHT22;2922;53.482;10.006;2023-05-21T13:37:44;29.10;99.90
5792;DHT22;2922;53.482;10.006;2023-05-21T13:40:11;29.00;99.90
5792;DHT22;2922;53.482;10.006;2023-05-21T13:42:39;28.70;99.90
5792;DHT22;2922;53.482;10.006;2023-05-21T13:45:06;28.80;99.90
5792;DHT22;2922;53.482;10.006;2023-05-21T13:47:32;28.70;99.90
5792;DHT22;2922;53.482;10.006;2023-05-21T13:49:58;28.70;99.90
5792;DHT22;2922;53.482;10.006;2023-05-21T13:52:23;28.60;99.90
5792;DHT22;2922;53.482;10.006;2023-05-21T13:54:49;28.60;99.90
5792;DHT22;2922;53.482;10.006;2023-05-21T13:57:15;28.70;99.90
5792;DHT22;2922;53.482;10.006;2023-05-21T13:59:40;28.70;99.90
5792;DHT22;2922;53.482;10.006;2023-05-21T14:02:07;28.60;99.90
5792;DHT22;2922;53.482;10.006;2023-05-21T14:04:33;28.40;99.90
5792;DHT22;2922;53.482;10.006;2023-05-21T14:06:59;28.30;99.90
5792;DHT22;2922;53.482;10.006;2023-05-21T14:09:25;28.10;99.90
5792;DHT22;2922;53.482;10.006;2023-05-21T14:11:54;27.90;99.90
5792;DHT22;2922;53.482;10.006;2023-05-21T14:14:20;27.90;99.90
5792;DHT22;2922;53.482;10.006;2023-05-21T14:16:47;27.90;99.90
5792;DHT22;2922;53.482;10.006;2023-05-21T14:19:13;27.80;99.90
5792;DHT22;2922;53.482;10.006;2023-05-21T14:21:39;27.70;99.90
5792;DHT22;2922;53.482;10.006;2023-05-21T14:24:04;27.80;99.90
5792;DHT22;2922;53.482;10.006;2023-05-21T14:26:30;27.80;99.90
5792;DHT22;2922;53.482;10.006;2023-05-21T14:28:55;27.80;99.90
5792;DHT22;2922;53.482;10.006;2023-05-21T14:31:21;27.60;99.90
5792;DHT22;2922;53.482;10.006;2023-05-21T14:33:47;27.60;99.90
5792;DHT22;2922;53.482;10.006;2023-05-21T14:36:13;27.50;99.90
5792;DHT22;2922;53.482;10.006;2023-05-21T14:38:39;27.50;99.90
5792;DHT22;2922;53.482;10.006;2023-05-21T14:41:05;27.40;99.90
5792;DHT22;2922;53.482;10.006;2023-05-21T14:43:32;27.40;99.90
5792;DHT22;2922;53.482;10.006;2023-05-21T14:45:57;27.30;99.90
5792;DHT22;2922;53.482;10.006;2023-05-21T14:48:23;27.20;99.90
5792;DHT22;2922;53.482;10.006;2023-05-21T14:50:49;27.20;99.90
5792;DHT22;2922;53.482;10.006;2023-05-21T14:53:15;27.20;99.90
5792;DHT22;2922;53.482;10.006;2023-05-21T14:55:41;27.20;99.90
5792;DHT22;2922;53.482;10.006;2023-05-21T14:58:07;27.40;99.90
5792;DHT22;2922;53.482;10.006;2023-05-21T15:00:33;27.00;99.90
5792;DHT22;2922;53.482;10.006;2023-05-21T15:03:00;27.00;99.90
5792;DHT22;2922;53.482;10.006;2023-05-21T15:05:26;27.10;99.90
5792;DHT22;2922;53.482;10.006;2023-05-21T15:07:55;27.00;99.90
5792;DHT22;2922;53.482;10.006;2023-05-21T15:10:21;27.10;99.90
5792;DHT22;2922;53.482;10.006;2023-05-21T15:12:47;27.10;99.90
5792;DHT22;2922;53.482;10.006;2023-05-21T15:15:13;27.10;99.90
5792;DHT22;2922;53.482;10.006;2023-05-21T15:17:39;27.10;99.90
5792;DHT22;2922;53.482;10.006;2023-05-21T15:20:05;27.10;99.90
5792;DHT22;2922;53.482;10.006;2023-05-21T15:22:31;27.20;99.90
5792;DHT22;2922;53.482;10.006;2023-05-21T15:24:57;27.20;99.90
5792;DHT22;2922;53.482;10.006;2023-05-21T15:27:23;27.20;99.90
5792;DHT22;2922;53.482;10.006;2023-05-21T15:29:50;27.20;99.90
5792;DHT22;2922;53.482;10.006;2023-05-21T15:32:16;27.30;99.90
5792;DHT22;2922;53.482;10.006;2023-05-21T15:34:42;27.30;99.90
5792;DHT22;2922;53.482;10.006;2023-05-21T15:37:07;27.30;99.90
5792;DHT22;2922;53.482;10.006;2023-05-21T15:39:33;27.30;99.90
5792;DHT22;2922;53.482;10.006;2023-05-21T15:41:59;27.20;99.90
5792;DHT22;2922;53.482;10.006;2023-05-21T15:44:25;27.10;99.90
5792;DHT22;2922;53.482;10.006;2023-05-21T15:46:51;27.10;99.90
5792;DHT22;2922;53.482;10.006;2023-05-21T15:49:18;27.10;99.90
5792;DHT22;2922;53.482;10.006;2023-05-21T15:51:45;27.00;99.90
5792;DHT22;2922;53.482;10.006;2023-05-21T15:54:11;26.90;99.90
5792;DHT22;2922;53.482;10.006;2023-05-21T15:56:48;26.90;99.90
5792;DHT22;2922;53.482;10.006;2023-05-21T15:59:13;27.00;99.90
5792;DHT22;2922;53.482;10.006;2023-05-21T16:01:39;27.00;99.90
5792;DHT22;2922;53.482;10.006;2023-05-21T16:04:05;26.90;99.90
5792;DHT22;2922;53.482;10.006;2023-05-21T16:06:31;26.80;99.90
5792;DHT22;2922;53.482;10.006;2023-05-21T16:08:57;26.90;99.90
5792;DHT22;2922;53.482;10.006;2023-05-21T16:11:24;26.80;99.90
5792;DHT22;2922;53.482;10.006;2023-05-21T16:13:53;26.70;99.90
5792;DHT22;2922;53.482;10.006;2023-05-21T16:16:19;26.80;99.90
5792;DHT22;2922;53.482;10.006;2023-05-21T16:18:45;26.80;99.90
5792;DHT22;2922;53.482;10.006;2023-05-21T16:21:11;26.70;99.90